Time;durP1;ratioP1;P1;durP2;ratioP2;P2;SDS_P1;SDS_P2;PMS_P1;PMS_P2;Temp;Humidity;BMP_temperature;BMP_pressure;BME280_temperature;BME280_humidity;BME280_pressure;Samples;Min_cycle;Max_cycle;Signal;HPM_P1;HPM_P2
2021/12/09 00:01:22;;;;;;;4.07;1.27;;;6.40;72.50;;;;;;5105785;28;20030;-70
2021/12/09 00:03:52;;;;;;;4.55;1.48;;;6.40;72.70;;;;;;5101817;28;20028;-69
2021/12/09 00:06:22;;;;;;;3.67;1.42;;;6.30;72.50;;;;;;5111579;28;20360;-69
2021/12/09 00:08:48;;;;;;;2.85;1.08;;;6.30;72.30;;;;;;5107791;28;20038;-69
2021/12/09 00:11:14;;;;;;;2.90;1.40;;;6.30;72.30;;;;;;5107485;28;20016;-69
2021/12/09 00:13:40;;;;;;;2.63;1.00;;;6.20;72.60;;;;;;5105393;28;20028;-69
2021/12/09 00:16:05;;;;;;;3.60;1.20;;;6.20;72.70;;;;;;5106177;28;20024;-69
2021/12/09 00:18:31;;;;;;;3.10;1.23;;;6.30;73.00;;;;;;5109341;28;20395;-69
2021/12/09 00:20:57;;;;;;;2.22;1.30;;;6.20;72.80;;;;;;5109387;28;20039;-69
2021/12/09 00:23:23;;;;;;;5.22;1.50;;;6.20;73.90;;;;;;5103533;28;20451;-69
2021/12/09 00:25:48;;;;;;;5.47;1.50;;;6.20;72.80;;;;;;5109046;28;20035;-71
2021/12/09 00:28:14;;;;;;;3.22;1.25;;;6.20;73.00;;;;;;5108947;28;20032;-70
2021/12/09 00:30:41;;;;;;;4.90;1.35;;;6.10;72.90;;;;;;5113350;28;20092;-69
2021/12/09 00:33:07;;;;;;;3.75;1.77;;;6.10;72.50;;;;;;5109175;28;20032;-69
2021/12/09 00:35:44;;;;;;;3.25;1.40;;;6.00;72.80;;;;;;5108958;28;20059;-69
2021/12/09 00:38:18;;;;;;;2.85;1.70;;;6.00;73.00;;;;;;5109010;28;20023;-69
2021/12/09 00:40:44;;;;;;;4.88;1.30;;;6.00;73.50;;;;;;5109427;28;20024;-69
2021/12/09 00:43:09;;;;;;;3.08;1.50;;;6.00;73.20;;;;;;5109531;28;20058;-69
2021/12/09 00:45:35;;;;;;;5.40;1.30;;;6.00;72.90;;;;;;5112244;28;20042;-69
2021/12/09 00:48:01;;;;;;;3.83;1.20;;;6.00;73.40;;;;;;5109009;28;20114;-69
2021/12/09 00:50:27;;;;;;;3.65;1.35;;;6.00;73.30;;;;;;5108755;28;20065;-69
2021/12/09 00:52:52;;;;;;;3.65;1.40;;;5.90;73.10;;;;;;5109156;28;20031;-70
2021/12/09 00:55:20;;;;;;;4.50;1.27;;;6.00;73.40;;;;;;5092004;28;20591;-69
2021/12/09 00:57:46;;;;;;;2.92;1.00;;;6.00;73.50;;;;;;5111528;28;20026;-69
2021/12/09 01:00:15;;;;;;;4.38;1.00;;;5.90;73.20;;;;;;5109528;28;20549;-70
2021/12/09 01:02:41;;;;;;;5.55;1.38;;;5.90;73.20;;;;;;5110186;27;20069;-69
2021/12/09 01:05:09;;;;;;;2.08;0.90;;;5.90;73.40;;;;;;5108546;28;20043;-69
2021/12/09 01:07:35;;;;;;;2.45;1.00;;;5.90;73.40;;;;;;5108856;28;20063;-70
2021/12/09 01:10:03;;;;;;;3.75;0.70;;;5.90;73.60;;;;;;5109984;28;20034;-69
2021/12/09 01:12:29;;;;;;;2.35;0.65;;;5.90;73.80;;;;;;5110551;28;20065;-69
2021/12/09 01:14:54;;;;;;;2.42;0.80;;;6.00;74.20;;;;;;5105171;28;20056;-70
2021/12/09 01:17:20;;;;;;;3.00;0.73;;;6.00;73.80;;;;;;5098299;28;20046;-70
2021/12/09 01:19:47;;;;;;;4.10;0.90;;;6.00;73.60;;;;;;5097250;28;20557;-69
2021/12/09 01:22:12;;;;;;;4.07;0.80;;;6.00;74.00;;;;;;5105018;27;20461;-69
2021/12/09 01:24:39;;;;;;;1.85;0.75;;;5.90;73.90;;;;;;5097572;28;20067;-69
2021/12/09 01:27:05;;;;;;;2.75;1.10;;;5.90;73.90;;;;;;5107562;28;20030;-69
2021/12/09 01:29:40;;;;;;;1.95;0.68;;;5.90;73.90;;;;;;5107512;28;20381;-69
2021/12/09 01:32:08;;;;;;;3.20;0.70;;;6.00;74.20;;;;;;5093415;28;20056;-70
2021/12/09 01:34:36;;;;;;;4.00;1.17;;;5.90;74.00;;;;;;5090054;28;20454;-69
2021/12/09 01:37:03;;;;;;;2.65;0.80;;;5.90;73.80;;;;;;5109742;28;20012;-69
2021/12/09 01:39:31;;;;;;;4.70;1.00;;;5.90;74.20;;;;;;5110651;28;20053;-69
2021/12/09 01:41:58;;;;;;;3.17;0.98;;;6.00;73.80;;;;;;5107396;28;20012;-69
2021/12/09 01:44:25;;;;;;;2.25;0.98;;;5.90;73.40;;;;;;5094444;28;20039;-69
2021/12/09 01:46:51;;;;;;;3.72;1.13;;;5.80;73.60;;;;;;5107881;28;20118;-69
2021/12/09 01:49:18;;;;;;;2.88;0.88;;;5.80;74.00;;;;;;5106552;28;20486;-70
2021/12/09 01:51:45;;;;;;;3.13;1.00;;;5.80;74.00;;;;;;5095773;28;20131;-69
2021/12/09 01:54:12;;;;;;;2.70;0.82;;;5.80;73.40;;;;;;5108651;28;20051;-70
2021/12/09 01:56:38;;;;;;;2.97;0.80;;;5.70;73.70;;;;;;5108864;28;20039;-69
2021/12/09 01:59:06;;;;;;;3.92;1.05;;;5.70;73.50;;;;;;5107843;28;20027;-69
2021/12/09 02:01:34;;;;;;;3.72;1.00;;;5.70;73.90;;;;;;5108895;27;20031;-70
2021/12/09 02:04:02;;;;;;;3.60;1.02;;;5.70;74.20;;;;;;5109026;28;20077;-69
2021/12/09 02:06:28;;;;;;;4.07;0.85;;;5.70;74.50;;;;;;5109825;28;20042;-69
2021/12/09 02:08:54;;;;;;;2.67;0.90;;;5.70;74.00;;;;;;5107633;28;20016;-69
2021/12/09 02:11:21;;;;;;;2.33;1.00;;;5.70;74.60;;;;;;5107590;28;20400;-69
2021/12/09 02:13:51;;;;;;;2.72;0.93;;;5.80;74.10;;;;;;5107023;28;20050;-68
2021/12/09 02:16:17;;;;;;;2.10;0.98;;;5.80;74.00;;;;;;5107711;28;20049;-69
2021/12/09 02:18:44;;;;;;;2.60;1.05;;;5.70;73.90;;;;;;5110634;28;20026;-69
2021/12/09 02:21:14;;;;;;;2.20;0.90;;;5.80;74.40;;;;;;5106145;28;20129;-69
2021/12/09 02:23:49;;;;;;;2.92;0.82;;;5.80;74.50;;;;;;5103002;28;20445;-69
2021/12/09 02:26:19;;;;;;;3.85;0.93;;;5.80;74.20;;;;;;5093111;28;20530;-69
2021/12/09 02:28:45;;;;;;;2.28;0.80;;;5.70;74.00;;;;;;5106955;28;20118;-69
2021/12/09 02:31:11;;;;;;;3.03;0.90;;;5.70;74.30;;;;;;5091618;28;20027;-69
2021/12/09 02:33:37;;;;;;;3.88;0.98;;;5.60;74.30;;;;;;5110625;28;20624;-69
2021/12/09 02:36:04;;;;;;;4.53;1.08;;;5.70;74.50;;;;;;5106697;28;20031;-69
2021/12/09 02:38:29;;;;;;;3.95;1.05;;;5.70;74.70;;;;;;5106883;28;20027;-70
2021/12/09 02:40:56;;;;;;;5.28;1.27;;;5.80;74.60;;;;;;5107793;28;20073;-70
2021/12/09 02:43:27;;;;;;;4.03;1.08;;;5.70;74.40;;;;;;5089249;28;20024;-69
2021/12/09 02:45:55;;;;;;;2.10;0.90;;;5.80;74.20;;;;;;5109394;28;20035;-69
2021/12/09 02:48:22;;;;;;;5.28;0.90;;;5.80;74.60;;;;;;5107781;28;20015;-70
2021/12/09 02:50:50;;;;;;;2.58;0.82;;;5.70;74.10;;;;;;5107843;28;20056;-70
2021/12/09 02:53:16;;;;;;;2.67;0.85;;;5.70;74.60;;;;;;5107989;28;20114;-70
2021/12/09 02:55:43;;;;;;;2.85;0.90;;;5.70;74.50;;;;;;5108222;28;20084;-69
2021/12/09 02:58:09;;;;;;;3.42;0.73;;;5.70;74.60;;;;;;5106949;28;20100;-69
2021/12/09 03:00:55;;;;;;;2.03;0.80;;;5.70;74.70;;;;;;5109698;28;20015;-69
2021/12/09 03:03:21;;;;;;;3.53;1.20;;;5.70;74.60;;;;;;5107319;28;20023;-69
2021/12/09 03:05:47;;;;;;;2.15;0.88;;;5.70;74.70;;;;;;5103864;28;20039;-69
2021/12/09 03:08:20;;;;;;;2.47;1.00;;;5.70;74.60;;;;;;5102517;28;20043;-69
2021/12/09 03:10:46;;;;;;;2.95;1.00;;;5.60;74.50;;;;;;5089626;28;20034;-69
2021/12/09 03:13:12;;;;;;;4.75;1.00;;;5.60;74.70;;;;;;5106708;28;20135;-69
2021/12/09 03:15:38;;;;;;;3.03;0.90;;;5.60;74.60;;;;;;5110107;28;20562;-69
2021/12/09 03:18:03;;;;;;;3.25;1.10;;;5.60;74.60;;;;;;5106420;28;20031;-69
2021/12/09 03:20:30;;;;;;;4.40;1.45;;;5.60;74.80;;;;;;5105750;28;20056;-69
2021/12/09 03:22:55;;;;;;;4.95;1.00;;;5.60;74.70;;;;;;5105647;28;20035;-69
2021/12/09 03:25:21;;;;;;;3.83;1.17;;;5.60;74.90;;;;;;5105754;28;20027;-69
2021/12/09 03:27:47;;;;;;;3.67;0.90;;;5.70;74.90;;;;;;5109090;28;20031;-69
2021/12/09 03:30:18;;;;;;;2.88;0.90;;;5.70;75.00;;;;;;5122213;27;20024;-70
2021/12/09 03:32:44;;;;;;;3.30;1.02;;;5.70;74.90;;;;;;5084470;28;20118;-69
2021/12/09 03:35:12;;;;;;;3.63;0.85;;;5.60;74.90;;;;;;5099100;28;20126;-69
2021/12/09 03:37:39;;;;;;;3.10;0.82;;;5.60;74.90;;;;;;5089080;28;20020;-69
2021/12/09 03:40:06;;;;;;;3.25;0.90;;;5.60;75.00;;;;;;5107346;28;20476;-69
2021/12/09 03:42:34;;;;;;;3.38;0.98;;;5.60;75.00;;;;;;5108541;28;20012;-69
2021/12/09 03:45:00;;;;;;;1.88;0.95;;;5.60;74.50;;;;;;5092229;28;20043;-69
2021/12/09 03:47:30;;;;;;;4.15;0.90;;;5.50;75.10;;;;;;5105764;28;20036;-69
2021/12/09 03:49:56;;;;;;;4.07;1.13;;;5.50;75.10;;;;;;5105077;28;20024;-69
2021/12/09 03:52:22;;;;;;;3.22;0.77;;;5.60;75.20;;;;;;5105028;28;20476;-69
2021/12/09 03:54:48;;;;;;;2.95;1.02;;;5.60;75.30;;;;;;5093299;28;20043;-69
2021/12/09 03:57:14;;;;;;;4.47;1.10;;;5.60;76.00;;;;;;5107835;28;20028;-68
2021/12/09 03:59:41;;;;;;;4.93;1.02;;;5.60;75.00;;;;;;5105634;28;20027;-68
2021/12/09 04:02:07;;;;;;;4.22;0.90;;;5.50;74.80;;;;;;5107368;28;20110;-69
2021/12/09 04:04:33;;;;;;;3.47;1.10;;;5.50;75.40;;;;;;5103580;28;20044;-69
2021/12/09 04:06:58;;;;;;;4.20;1.13;;;5.60;75.40;;;;;;5096361;28;20028;-69
2021/12/09 04:09:25;;;;;;;2.95;1.00;;;5.60;76.40;;;;;;5107469;28;20032;-68
2021/12/09 04:11:52;;;;;;;3.28;0.88;;;5.50;75.00;;;;;;5105765;28;20120;-68
2021/12/09 04:14:19;;;;;;;4.22;1.05;;;5.50;75.10;;;;;;5105566;28;20047;-68
2021/12/09 04:16:45;;;;;;;3.88;1.10;;;5.60;75.40;;;;;;5105727;28;20016;-68
2021/12/09 04:19:13;;;;;;;2.65;0.70;;;5.50;75.30;;;;;;5089765;28;20034;-68
2021/12/09 04:21:40;;;;;;;3.47;0.80;;;5.50;75.40;;;;;;5105005;28;20889;-69
2021/12/09 04:24:08;;;;;;;2.65;0.98;;;5.60;75.40;;;;;;5105502;28;20036;-69
2021/12/09 04:26:35;;;;;;;4.68;0.90;;;5.50;75.00;;;;;;5105290;28;20032;-69
2021/12/09 04:29:01;;;;;;;2.95;0.90;;;5.50;75.50;;;;;;5090690;28;20028;-69
2021/12/09 04:31:27;;;;;;;4.38;1.08;;;5.50;75.50;;;;;;5105369;28;20031;-68
2021/12/09 04:33:53;;;;;;;4.65;0.80;;;5.60;75.60;;;;;;5101900;28;20031;-69
2021/12/09 04:36:21;;;;;;;3.67;0.88;;;5.60;75.40;;;;;;5108763;28;20139;-69
2021/12/09 04:38:48;;;;;;;7.10;1.25;;;5.60;75.40;;;;;;5106859;28;20069;-69
2021/12/09 04:41:15;;;;;;;2.83;1.15;;;5.60;74.70;;;;;;5105208;28;20035;-69
2021/12/09 04:43:42;;;;;;;1.92;0.75;;;5.60;75.00;;;;;;5105626;28;20365;-69
2021/12/09 04:46:09;;;;;;;2.45;0.98;;;5.50;75.30;;;;;;5106243;28;20032;-69
2021/12/09 04:48:35;;;;;;;3.22;0.70;;;5.60;75.60;;;;;;5108515;28;20046;-68
2021/12/09 04:51:00;;;;;;;6.55;1.08;;;5.60;75.80;;;;;;5104508;28;20032;-68
2021/12/09 04:53:26;;;;;;;6.13;1.02;;;5.60;75.30;;;;;;5105129;28;20024;-69
2021/12/09 04:55:52;;;;;;;3.75;0.80;;;5.60;75.50;;;;;;5088380;28;20031;-68
2021/12/09 04:58:18;;;;;;;2.67;0.82;;;5.60;75.80;;;;;;5105656;28;20423;-69
2021/12/09 05:00:43;;;;;;;2.22;0.77;;;5.60;75.80;;;;;;5109616;28;20408;-68
2021/12/09 05:03:12;;;;;;;4.50;0.82;;;5.60;75.50;;;;;;5107161;28;20024;-68
2021/12/09 05:05:50;;;;;;;5.03;0.90;;;5.60;75.80;;;;;;5107261;28;20108;-68
2021/12/09 05:08:18;;;;;;;2.72;0.68;;;5.60;75.50;;;;;;5108705;28;20015;-69
2021/12/09 05:13:16;;;;;;;4.85;1.20;;;5.50;75.30;;;;;;5093447;28;20571;-68
2021/12/09 05:15:43;;;;;;;3.80;1.10;;;5.40;75.50;;;;;;5112630;28;20030;-68
2021/12/09 05:18:09;;;;;;;3.60;1.00;;;5.40;75.10;;;;;;5108198;28;20031;-69
2021/12/09 05:20:34;;;;;;;3.63;0.95;;;5.40;75.50;;;;;;5107599;28;20507;-68
2021/12/09 05:23:00;;;;;;;5.15;1.40;;;5.40;75.80;;;;;;5093706;28;20043;-69
2021/12/09 05:25:26;;;;;;;4.75;1.10;;;5.40;75.70;;;;;;5108535;28;20532;-68
2021/12/09 05:27:53;;;;;;;3.90;0.98;;;5.40;75.60;;;;;;5095473;28;20024;-68
2021/12/09 05:30:24;;;;;;;4.03;1.08;;;5.30;75.40;;;;;;5109386;28;20069;-68
2021/12/09 05:32:50;;;;;;;5.85;0.95;;;5.20;75.50;;;;;;5108497;28;20035;-69
2021/12/09 05:35:18;;;;;;;2.50;0.90;;;5.20;75.60;;;;;;5108561;28;20092;-69
2021/12/09 05:37:44;;;;;;;3.30;1.20;;;5.20;75.40;;;;;;5108303;28;20054;-68
2021/12/09 05:40:12;;;;;;;3.17;1.00;;;5.10;75.90;;;;;;5108972;28;20023;-69
2021/12/09 05:42:38;;;;;;;4.10;1.13;;;5.10;76.10;;;;;;5111956;28;20392;-69
2021/12/09 05:45:04;;;;;;;3.53;1.00;;;5.10;76.00;;;;;;5107944;28;20035;-68
2021/12/09 05:47:30;;;;;;;3.28;1.00;;;5.10;76.10;;;;;;5107726;28;20483;-68
2021/12/09 05:49:56;;;;;;;3.10;0.90;;;5.10;76.10;;;;;;5107755;28;20395;-69
2021/12/09 05:52:22;;;;;;;4.13;1.60;;;5.10;76.20;;;;;;5107961;28;20016;-69
2021/12/09 05:54:48;;;;;;;3.25;1.10;;;5.00;76.20;;;;;;5110757;28;20047;-68
2021/12/09 05:57:15;;;;;;;3.42;1.10;;;5.00;75.80;;;;;;5111558;27;20040;-68
2021/12/09 05:59:41;;;;;;;4.20;1.20;;;4.90;75.80;;;;;;5107931;28;20073;-68
2021/12/09 06:02:12;;;;;;;4.43;1.05;;;4.90;75.90;;;;;;5109979;27;20110;-68
2021/12/09 06:04:38;;;;;;;5.47;1.50;;;4.90;75.90;;;;;;5107505;28;20092;-68
2021/12/09 06:07:05;;;;;;;4.50;1.25;;;4.70;76.10;;;;;;5092375;28;20468;-69
2021/12/09 06:09:31;;;;;;;4.07;1.33;;;4.70;76.50;;;;;;5113842;28;20103;-68
2021/12/09 06:11:57;;;;;;;3.80;1.17;;;4.80;76.90;;;;;;5095869;28;20106;-68
2021/12/09 06:14:22;;;;;;;2.47;1.10;;;4.80;76.80;;;;;;5109537;28;20498;-67
2021/12/09 06:16:48;;;;;;;4.07;1.55;;;4.80;77.30;;;;;;5109348;28;20081;-67
2021/12/09 06:19:14;;;;;;;3.60;1.30;;;4.90;77.20;;;;;;5091738;28;20081;-67
2021/12/09 06:21:40;;;;;;;3.30;1.30;;;4.90;76.80;;;;;;5112933;28;20019;-68
2021/12/09 06:24:05;;;;;;;3.38;1.23;;;4.90;76.50;;;;;;5109377;28;20136;-68
2021/12/09 06:26:32;;;;;;;6.00;1.40;;;4.90;76.60;;;;;;5109418;28;20495;-68
2021/12/09 06:28:59;;;;;;;3.75;1.17;;;4.90;76.90;;;;;;5109343;28;20023;-68
2021/12/09 06:31:25;;;;;;;4.38;1.20;;;4.90;77.30;;;;;;5105891;28;20050;-68
2021/12/09 06:33:51;;;;;;;3.63;1.23;;;5.00;77.30;;;;;;5096519;28;20051;-68
2021/12/09 06:36:18;;;;;;;4.47;1.30;;;4.90;77.10;;;;;;5110094;28;20052;-68
2021/12/09 06:38:44;;;;;;;6.75;1.30;;;4.90;77.40;;;;;;5109671;28;20019;-68
2021/12/09 06:41:10;;;;;;;4.22;1.40;;;4.80;77.20;;;;;;5109640;28;20026;-68
2021/12/09 06:43:40;;;;;;;4.70;1.40;;;4.90;77.40;;;;;;5109567;28;20031;-69
2021/12/09 06:46:09;;;;;;;4.57;1.23;;;4.90;77.50;;;;;;5109963;28;20035;-69
2021/12/09 06:48:36;;;;;;;4.40;1.42;;;4.90;77.20;;;;;;5112486;28;20015;-69
2021/12/09 06:51:05;;;;;;;5.93;1.42;;;5.00;77.30;;;;;;5109063;28;20118;-69
2021/12/09 06:53:33;;;;;;;5.20;1.33;;;5.10;77.40;;;;;;5095411;28;20036;-69
2021/12/09 06:55:59;;;;;;;5.05;1.40;;;5.20;77.50;;;;;;5111228;27;20024;-69
2021/12/09 06:58:25;;;;;;;2.60;1.10;;;5.30;77.60;;;;;;5091284;28;20111;-69
2021/12/09 07:00:54;;;;;;;4.65;1.40;;;5.30;76.80;;;;;;5112377;27;20024;-69
2021/12/09 07:03:21;;;;;;;4.50;1.30;;;5.40;77.50;;;;;;5111842;28;20028;-69
2021/12/09 07:05:51;;;;;;;4.00;1.40;;;5.40;77.10;;;;;;5108524;28;20023;-68
2021/12/09 07:08:18;;;;;;;5.07;1.35;;;5.40;77.10;;;;;;5108908;28;20081;-68
2021/12/09 07:10:44;;;;;;;5.85;1.25;;;5.50;77.10;;;;;;5108938;28;20027;-68
2021/12/09 07:13:10;;;;;;;3.58;1.15;;;5.50;77.20;;;;;;5109198;28;20024;-69
2021/12/09 07:15:36;;;;;;;5.93;1.52;;;5.60;77.20;;;;;;5111055;28;20385;-69
2021/12/09 07:18:02;;;;;;;3.45;1.25;;;5.60;77.30;;;;;;5108629;28;20023;-69
2021/12/09 07:20:28;;;;;;;3.17;1.55;;;5.70;76.90;;;;;;5108149;28;20102;-68
2021/12/09 07:22:55;;;;;;;3.85;1.45;;;5.70;77.00;;;;;;5108585;28;20099;-69
2021/12/09 07:25:23;;;;;;;5.20;1.52;;;5.70;77.00;;;;;;5108635;28;20085;-68
2021/12/09 07:27:49;;;;;;;5.25;1.38;;;5.70;76.70;;;;;;5110747;28;20115;-69
2021/12/09 07:30:16;;;;;;;4.78;1.30;;;5.80;77.10;;;;;;5109419;28;20023;-69
2021/12/09 07:32:42;;;;;;;5.45;1.70;;;5.80;76.70;;;;;;5108189;28;20020;-68
2021/12/09 07:35:10;;;;;;;4.68;1.60;;;5.80;76.70;;;;;;5108151;28;20028;-69
2021/12/09 07:37:37;;;;;;;4.50;1.73;;;5.80;77.20;;;;;;5108327;28;20030;-69
2021/12/09 07:40:06;;;;;;;6.05;1.90;;;5.90;76.70;;;;;;5110083;28;20035;-69
2021/12/09 07:42:32;;;;;;;5.65;1.70;;;5.90;76.90;;;;;;5110556;28;20019;-69
2021/12/09 07:44:57;;;;;;;4.97;1.25;;;5.90;76.90;;;;;;5107826;28;20487;-70
2021/12/09 07:47:23;;;;;;;3.78;1.42;;;5.90;76.90;;;;;;5108244;28;20016;-68
2021/12/09 07:49:48;;;;;;;5.40;1.80;;;5.90;76.60;;;;;;5107911;28;20023;-68
2021/12/09 07:52:14;;;;;;;6.93;2.10;;;5.90;77.10;;;;;;5107940;28;20504;-69
2021/12/09 07:54:40;;;;;;;4.85;2.10;;;5.90;76.60;;;;;;5107416;28;20063;-68
2021/12/09 07:57:06;;;;;;;8.60;2.30;;;5.90;76.90;;;;;;5097370;28;20032;-68
2021/12/09 07:59:31;;;;;;;5.15;1.80;;;5.90;77.00;;;;;;5107606;28;20491;-69
2021/12/09 08:01:57;;;;;;;6.90;2.30;;;6.00;76.90;;;;;;5109599;28;20028;-67
2021/12/09 08:04:23;;;;;;;6.18;1.90;;;6.00;77.00;;;;;;5107831;28;20114;-69
2021/12/09 08:06:48;;;;;;;4.32;1.58;;;6.10;76.90;;;;;;5110886;28;20024;-69
2021/12/09 08:09:14;;;;;;;5.85;1.88;;;6.10;76.50;;;;;;5109044;28;20396;-69
2021/12/09 08:11:41;;;;;;;4.55;1.50;;;6.00;76.40;;;;;;5107850;28;20024;-68
2021/12/09 08:14:10;;;;;;;6.05;1.80;;;6.10;76.70;;;;;;5093163;28;20040;-68
2021/12/09 08:16:38;;;;;;;6.25;1.60;;;6.10;77.00;;;;;;5108082;28;20403;-68
2021/12/09 08:19:09;;;;;;;7.15;1.73;;;6.10;76.80;;;;;;5109283;28;20494;-68
2021/12/09 08:21:37;;;;;;;6.68;1.83;;;6.10;76.90;;;;;;5110859;28;20098;-68
2021/12/09 08:24:04;;;;;;;5.35;1.67;;;6.10;76.90;;;;;;5095182;28;20035;-69
2021/12/09 08:26:30;;;;;;;5.28;1.65;;;6.20;77.00;;;;;;5107507;28;20019;-69
2021/12/09 08:28:56;;;;;;;6.55;1.55;;;6.20;76.90;;;;;;5107930;28;20111;-69
2021/12/09 08:31:22;;;;;;;6.38;2.03;;;6.30;77.10;;;;;;5108773;28;20487;-69
2021/12/09 08:33:48;;;;;;;8.00;1.88;;;6.30;76.70;;;;;;5109600;28;20020;-70
2021/12/09 08:36:13;;;;;;;4.07;1.90;;;6.30;76.90;;;;;;5111466;28;20047;-69
2021/12/09 08:38:39;;;;;;;5.05;1.90;;;6.30;76.80;;;;;;5100509;28;20023;-69
2021/12/09 08:41:05;;;;;;;7.25;2.75;;;6.40;76.80;;;;;;5108830;27;20035;-70
2021/12/09 08:43:31;;;;;;;5.80;2.15;;;6.40;76.60;;;;;;5107072;27;20107;-70
2021/12/09 08:45:57;;;;;;;6.03;2.53;;;6.40;76.90;;;;;;5120007;27;20126;-70
2021/12/09 08:48:24;;;;;;;7.30;2.58;;;6.40;76.80;;;;;;5110955;28;20050;-71
2021/12/09 08:50:50;;;;;;;5.85;2.33;;;6.40;76.70;;;;;;5115525;27;20110;-71
2021/12/09 08:53:20;;;;;;;5.75;2.50;;;6.40;77.10;;;;;;5114300;27;20484;-71
2021/12/09 08:55:46;;;;;;;7.00;2.17;;;6.50;77.20;;;;;;5111382;27;20028;-69
2021/12/09 08:58:12;;;;;;;7.22;2.20;;;6.50;76.90;;;;;;5114570;27;20023;-69
2021/12/09 09:00:38;;;;;;;5.50;2.03;;;6.60;77.10;;;;;;5115701;27;20459;-69
2021/12/09 09:03:05;;;;;;;6.50;2.00;;;6.70;77.20;;;;;;5114061;27;20029;-70
2021/12/09 09:05:32;;;;;;;5.00;1.55;;;6.70;76.80;;;;;;5116044;27;20119;-70
2021/12/09 09:07:59;;;;;;;7.22;2.03;;;6.70;76.50;;;;;;5113958;27;20024;-70
2021/12/09 09:10:27;;;;;;;6.47;1.90;;;6.80;76.80;;;;;;5094124;27;20441;-70
2021/12/09 09:12:54;;;;;;;5.32;1.92;;;6.80;76.70;;;;;;5087023;27;20019;-69
2021/12/09 09:15:22;;;;;;;6.53;2.35;;;6.90;76.80;;;;;;5092723;27;20052;-68
2021/12/09 09:17:48;;;;;;;5.07;1.85;;;6.90;75.90;;;;;;5077688;27;20909;-65
2021/12/09 09:20:17;;;;;;;5.45;2.00;;;6.90;75.80;;;;;;5105167;27;20032;-68
2021/12/09 09:22:43;;;;;;;6.50;2.00;;;6.90;75.90;;;;;;5116747;27;20019;-67
2021/12/09 09:25:14;;;;;;;4.65;2.05;;;6.90;75.90;;;;;;5107942;27;20508;-67
2021/12/09 09:27:41;;;;;;;5.80;2.10;;;6.90;76.20;;;;;;5109435;27;20016;-67
2021/12/09 09:30:07;;;;;;;5.53;1.92;;;7.00;76.20;;;;;;5092082;28;20043;-67
2021/12/09 09:32:34;;;;;;;4.55;1.85;;;7.10;76.70;;;;;;5110195;27;20035;-67
2021/12/09 09:35:00;;;;;;;11.23;2.28;;;7.10;77.30;;;;;;5106775;27;20043;-67
2021/12/09 09:37:26;;;;;;;8.35;2.30;;;7.20;77.50;;;;;;5109487;27;20019;-67
2021/12/09 09:39:51;;;;;;;7.90;2.33;;;7.20;76.60;;;;;;5090287;28;20415;-66
2021/12/09 09:42:44;;;;;;;7.20;2.40;;;7.30;76.60;;;;;;5108835;28;20019;-66
2021/12/09 09:45:08;;;;;;;5.28;2.00;;;7.40;76.60;;;;;;5108026;27;20457;-67
2021/12/09 09:47:34;;;;;;;6.35;2.22;;;7.50;76.30;;;;;;5090061;28;20016;-66
2021/12/09 09:50:02;;;;;;;6.63;2.75;;;7.50;77.00;;;;;;5108635;27;20123;-66
2021/12/09 09:52:28;;;;;;;6.30;2.08;;;7.50;76.10;;;;;;5109361;27;20031;-67
2021/12/09 09:54:55;;;;;;;7.72;2.13;;;7.40;76.00;;;;;;5109133;27;20054;-66
2021/12/09 09:57:22;;;;;;;7.05;2.05;;;7.40;75.90;;;;;;5108941;27;20488;-67
2021/12/09 09:59:48;;;;;;;5.38;1.75;;;7.50;76.40;;;;;;5107640;27;20066;-66
2021/12/09 10:02:15;;;;;;;6.47;1.85;;;7.50;76.00;;;;;;5108650;27;20058;-68
2021/12/09 10:04:57;;;;;;;6.20;2.08;;;7.50;75.70;;;;;;5107298;27;20028;-67
2021/12/09 10:07:24;;;;;;;8.95;1.90;;;7.60;76.00;;;;;;5090957;28;20038;-68
2021/12/09 10:09:52;;;;;;;3.78;1.60;;;7.60;75.50;;;;;;5107949;27;20023;-67
2021/12/09 10:12:18;;;;;;;8.23;2.45;;;7.60;75.20;;;;;;5109686;27;20391;-68
2021/12/09 10:14:52;;;;;;;7.47;2.22;;;7.60;75.90;;;;;;5107302;27;20100;-67
2021/12/09 10:17:24;;;;;;;7.45;2.22;;;7.70;75.80;;;;;;5106204;28;20088;-67
2021/12/09 10:19:55;;;;;;;6.35;2.20;;;7.70;76.00;;;;;;5106978;28;20372;-67
2021/12/09 10:22:30;;;;;;;5.35;1.70;;;7.80;76.40;;;;;;5109794;27;20031;-68
2021/12/09 10:24:58;;;;;;;6.80;1.83;;;8.00;76.10;;;;;;5089142;28;20043;-67
2021/12/09 10:27:34;;;;;;;4.70;2.17;;;8.10;76.50;;;;;;5107951;27;20032;-67
2021/12/09 10:30:12;;;;;;;8.27;2.08;;;8.20;76.40;;;;;;5107371;28;20031;-66
2021/12/09 10:32:39;;;;;;;9.18;2.50;;;8.30;76.20;;;;;;5109976;27;20487;-67
2021/12/09 10:35:09;;;;;;;6.82;2.08;;;8.40;76.40;;;;;;5104549;27;20502;-68
2021/12/09 10:37:37;;;;;;;6.43;1.77;;;8.50;75.80;;;;;;5105294;27;20020;-68
2021/12/09 10:40:12;;;;;;;9.45;3.00;;;8.60;75.30;;;;;;5107216;27;20034;-67
2021/12/09 10:42:46;;;;;;;7.93;2.90;;;8.60;75.30;;;;;;5110557;27;20035;-66
2021/12/09 10:45:16;;;;;;;7.32;2.72;;;8.60;75.10;;;;;;5106664;27;20058;-67
2021/12/09 10:52:56;;;;;;;9.23;2.30;;;8.70;74.70;;;;;;5108688;27;20063;-68
2021/12/09 10:55:31;;;;;;;5.65;2.00;;;8.70;74.80;;;;;;5104255;27;20048;-68
2021/12/09 10:58:04;;;;;;;6.25;1.90;;;8.60;74.90;;;;;;5106018;28;20038;-68
2021/12/09 11:00:41;;;;;;;8.55;2.22;;;8.70;74.90;;;;;;5107835;28;20034;-67
2021/12/09 11:03:10;;;;;;;5.05;2.22;;;8.60;75.20;;;;;;5104306;28;20034;-68
2021/12/09 11:05:40;;;;;;;10.88;2.25;;;8.60;75.40;;;;;;5106144;27;20409;-67
2021/12/09 11:08:20;;;;;;;6.47;1.90;;;8.60;75.30;;;;;;5109801;27;20031;-67
2021/12/09 11:10:48;;;;;;;5.30;2.00;;;8.50;75.30;;;;;;5117727;27;20031;-64
2021/12/09 11:13:20;;;;;;;4.97;2.20;;;8.50;75.30;;;;;;5111082;27;20032;-63
2021/12/09 11:15:53;;;;;;;4.88;2.13;;;8.50;75.70;;;;;;5118903;27;20034;-62
2021/12/09 11:18:33;;;;;;;8.38;1.85;;;8.50;75.80;;;;;;5111619;27;20515;-63
2021/12/09 11:21:03;;;;;;;6.10;2.00;;;8.50;75.90;;;;;;5109417;27;20492;-66
2021/12/09 11:23:33;;;;;;;11.80;2.22;;;8.60;76.40;;;;;;5110960;27;20020;-64
2021/12/09 11:26:32;;;;;;;5.38;1.63;;;8.60;76.60;;;;;;5112422;27;20035;-63
2021/12/09 11:29:08;;;;;;;6.85;1.50;;;8.60;76.50;;;;;;5102778;27;20152;-63
2021/12/09 11:31:39;;;;;;;5.35;1.63;;;8.70;76.30;;;;;;5111197;27;20019;-63
2021/12/09 11:34:12;;;;;;;4.97;1.65;;;8.60;76.40;;;;;;5111583;28;20160;-66
2021/12/09 11:36:44;;;;;;;4.30;1.48;;;8.70;77.20;;;;;;5116141;27;20112;-67
2021/12/09 11:39:17;;;;;;;5.13;1.58;;;8.70;77.20;;;;;;5113781;27;20027;-66
2021/12/09 11:41:43;;;;;;;5.30;1.67;;;8.80;77.60;;;;;;5114554;27;20024;-66
2021/12/09 11:44:10;;;;;;;6.57;1.80;;;8.70;77.10;;;;;;5110963;27;20030;-66
2021/12/09 11:46:38;;;;;;;5.57;1.98;;;8.70;76.80;;;;;;5103816;28;20119;-67
2021/12/09 11:49:04;;;;;;;7.68;1.85;;;8.70;77.20;;;;;;5113243;28;20092;-65
2021/12/09 11:51:30;;;;;;;6.10;1.90;;;8.80;77.80;;;;;;5118742;27;20038;-66
2021/12/09 11:53:59;;;;;;;3.75;1.63;;;8.70;78.10;;;;;;5112750;27;20031;-65
2021/12/09 11:59:22;;;;;;;5.63;1.90;;;8.80;78.40;;;;;;5123965;27;20024;-66
2021/12/09 12:11:28;;;;;;;6.93;1.65;;;8.80;79.00;;;;;;5003307;28;20053;-66
2021/12/09 12:14:03;;;;;;;5.40;1.50;;;8.80;79.60;;;;;;5000311;28;20033;-70
2021/12/09 12:16:59;;;;;;;4.47;1.67;;;8.80;80.20;;;;;;4986301;28;20061;-65
2021/12/09 12:20:21;;;;;;;3.88;2.60;;;8.90;80.20;;;;;;4988502;28;20077;-66
2021/12/09 12:23:19;;;;;;;3.90;1.35;;;8.90;80.60;;;;;;4993068;28;20043;-65
2021/12/09 12:28:30;;;;;;;4.38;1.42;;;8.80;81.60;;;;;;4989532;28;20125;-67
2021/12/09 12:34:56;;;;;;;5.47;1.58;;;8.80;82.60;;;;;;4994632;28;20042;-68
2021/12/09 12:39:56;;;;;;;3.40;1.73;;;8.70;82.50;;;;;;4991456;28;20061;-66
2021/12/09 12:45:56;;;;;;;4.97;1.65;;;8.70;83.30;;;;;;5044003;27;20529;-65
2021/12/09 12:51:12;;;;;;;4.80;1.00;;;8.90;83.60;;;;;;5021831;28;20457;-65
2021/12/09 12:53:44;;;;;;;4.32;1.20;;;8.90;83.30;;;;;;5024422;28;20041;-66
2021/12/09 12:56:12;;;;;;;5.68;1.30;;;8.90;83.50;;;;;;5023150;28;20037;-66
2021/12/09 12:58:59;;;;;;;4.35;1.80;;;8.90;83.70;;;;;;5024600;28;20502;-67
2021/12/09 13:01:25;;;;;;;8.25;1.83;;;9.00;84.10;;;;;;5026215;28;20269;-67
2021/12/09 13:03:54;;;;;;;3.97;1.75;;;9.00;84.30;;;;;;5026759;28;20577;-66
2021/12/09 13:06:46;;;;;;;4.95;1.85;;;9.00;84.40;;;;;;5027602;28;20447;-67
2021/12/09 13:12:04;;;;;;;;;;;9.00;84.20;;;;;;5025349;28;20100;-66
2021/12/09 13:14:33;;;;;;;4.30;1.50;;;9.10;83.60;;;;;;5011534;28;19960;-66
2021/12/09 13:19:37;;;;;;;4.80;1.83;;;9.10;84.10;;;;;;5096557;27;20035;-67
2021/12/09 13:22:11;;;;;;;5.22;2.00;;;9.10;84.60;;;;;;5109568;27;20476;-67
2021/12/09 13:25:05;;;;;;;3.58;1.50;;;9.10;84.50;;;;;;5109895;28;20133;-67
2021/12/09 13:27:49;;;;;;;;;;;9.10;85.30;;;;;;5109281;28;20027;-67
2021/12/09 13:49:40;;;;;;;2.65;1.30;;;9.00;85.80;;;;;;5113861;27;20045;-67
2021/12/09 13:54:17;;;;;;;4.25;1.70;;;9.00;86.60;;;;;;5103042;28;20734;-66
2021/12/09 13:54:54;;;;;;;3.42;1.63;;;9.00;86.80;;;;;;5111727;27;20028;-66
2021/12/09 13:57:30;;;;;;;3.58;1.25;;;8.90;86.50;;;;;;5112913;27;20089;-65
2021/12/09 13:59:56;;;;;;;4.72;1.55;;;8.90;87.20;;;;;;5113623;27;20015;-66
2021/12/09 14:02:23;;;;;;;2.85;1.48;;;8.90;87.40;;;;;;5099751;28;20047;-67
2021/12/09 14:04:51;;;;;;;3.30;1.50;;;8.90;87.70;;;;;;5099759;28;20038;-66